sensor_id;sensor_type;location;lat;lon;timestamp;pressure;altitude;pressure_sealevel;temperature;humidity
60307;BME280;46155;52.364;6.580;2023-12-14T04:01:55;100985.22;;;4.61;100.00
60307;BME280;46155;52.364;6.580;2023-12-14T04:04:20;100991.06;;;4.59;100.00
60307;BME280;46155;52.364;6.580;2023-12-14T04:06:46;100992.63;;;4.57;100.00
60307;BME280;46155;52.364;6.580;2023-12-14T04:09:11;100990.16;;;4.48;100.00
60307;BME280;46155;52.364;6.580;2023-12-14T04:11:36;100999.72;;;4.39;100.00
60307;BME280;46155;52.364;6.580;2023-12-14T04:14:02;101002.94;;;4.36;100.00
60307;BME280;46155;52.364;6.580;2023-12-14T04:16:27;101004.41;;;4.43;100.00
60307;BME280;46155;52.364;6.580;2023-12-14T04:18:52;101006.66;;;4.48;100.00
60307;BME280;46155;52.364;6.580;2023-12-14T04:21:18;101013.31;;;4.26;100.00
60307;BME280;46155;52.364;6.580;2023-12-14T04:23:43;101020.63;;;4.30;100.00
60307;BME280;46155;52.364;6.580;2023-12-14T04:26:10;101036.94;;;4.19;100.00
60307;BME280;46155;52.364;6.580;2023-12-14T04:28:36;101030.63;;;4.06;100.00
60307;BME280;46155;52.364;6.580;2023-12-14T04:31:01;101037.69;;;4.18;100.00
60307;BME280;46155;52.364;6.580;2023-12-14T04:33:26;101034.75;;;4.23;100.00
60307;BME280;46155;52.364;6.580;2023-12-14T04:35:52;101036.47;;;4.33;100.00
60307;BME280;46155;52.364;6.580;2023-12-14T04:38:18;101019.41;;;4.26;100.00
60307;BME280;46155;52.364;6.580;2023-12-14T04:40:43;101034.91;;;4.35;100.00
60307;BME280;46155;52.364;6.580;2023-12-14T04:43:08;101040.28;;;4.18;100.00
60307;BME280;46155;52.364;6.580;2023-12-14T04:45:34;101041.59;;;3.93;100.00
60307;BME280;46155;52.364;6.580;2023-12-14T04:47:59;101039.13;;;3.95;100.00
60307;BME280;46155;52.364;6.580;2023-12-14T04:50:24;101042.28;;;4.01;100.00
60307;BME280;46155;52.364;6.580;2023-12-14T04:52:50;101037.28;;;3.94;100.00
60307;BME280;46155;52.364;6.580;2023-12-14T04:55:15;101048.75;;;3.96;100.00
60307;BME280;46155;52.364;6.580;2023-12-14T04:57:40;101057.31;;;3.95;100.00
60307;BME280;46155;52.364;6.580;2023-12-14T05:00:06;101058.88;;;3.93;100.00
60307;BME280;46155;52.364;6.580;2023-12-14T05:02:32;101066.94;;;3.96;100.00
60307;BME280;46155;52.364;6.580;2023-12-14T05:04:58;101065.16;;;4.05;100.00
60307;BME280;46155;52.364;6.580;2023-12-14T05:07:23;101075.63;;;4.16;100.00
60307;BME280;46155;52.364;6.580;2023-12-14T05:09:49;101077.13;;;4.03;100.00
60307;BME280;46155;52.364;6.580;2023-12-14T05:12:14;101082.66;;;3.97;100.00
60307;BME280;46155;52.364;6.580;2023-12-14T05:14:40;101084.50;;;3.99;100.00
60307;BME280;46155;52.364;6.580;2023-12-14T05:17:05;101095.34;;;4.13;100.00
60307;BME280;46155;52.364;6.580;2023-12-14T05:19:32;101102.59;;;4.26;100.00
60307;BME280;46155;52.364;6.580;2023-12-14T05:21:59;101106.78;;;4.35;100.00
60307;BME280;46155;52.364;6.580;2023-12-14T05:24:24;101112.53;;;4.41;100.00
60307;BME280;46155;52.364;6.580;2023-12-14T05:26:49;101112.41;;;4.39;100.00
60307;BME280;46155;52.364;6.580;2023-12-14T05:29:15;101120.78;;;4.45;100.00
60307;BME280;46155;52.364;6.580;2023-12-14T05:31:42;101116.19;;;4.43;100.00
60307;BME280;46155;52.364;6.580;2023-12-14T05:34:07;101128.69;;;4.47;100.00
60307;BME280;46155;52.364;6.580;2023-12-14T05:36:32;101121.75;;;4.37;100.00
60307;BME280;46155;52.364;6.580;2023-12-14T05:38:58;101143.09;;;4.43;100.00
60307;BME280;46155;52.364;6.580;2023-12-14T05:41:23;101137.34;;;4.37;100.00
60307;BME280;46155;52.364;6.580;2023-12-14T05:43:48;101144.03;;;4.44;100.00
60307;BME280;46155;52.364;6.580;2023-12-14T05:46:21;101145.69;;;4.43;100.00
60307;BME280;46155;52.364;6.580;2023-12-14T05:48:46;101163.91;;;4.43;100.00
60307;BME280;46155;52.364;6.580;2023-12-14T05:51:11;101157.44;;;4.48;100.00
60307;BME280;46155;52.364;6.580;2023-12-14T05:53:36;101162.91;;;4.52;100.00
60307;BME280;46155;52.364;6.580;2023-12-14T05:56:05;101173.03;;;4.48;100.00
60307;BME280;46155;52.364;6.580;2023-12-14T05:58:31;101173.75;;;4.37;100.00
60307;BME280;46155;52.364;6.580;2023-12-14T06:00:56;101188.84;;;4.41;100.00
60307;BME280;46155;52.364;6.580;2023-12-14T06:03:21;101195.38;;;4.46;100.00
60307;BME280;46155;52.364;6.580;2023-12-14T06:05:47;101205.09;;;4.39;100.00
60307;BME280;46155;52.364;6.580;2023-12-14T06:08:12;101203.69;;;4.42;100.00
60307;BME280;46155;52.364;6.580;2023-12-14T06:10:38;101203.88;;;4.35;100.00
60307;BME280;46155;52.364;6.580;2023-12-14T06:13:03;101219.28;;;4.42;100.00
60307;BME280;46155;52.364;6.580;2023-12-14T06:15:29;101223.91;;;4.36;100.00
60307;BME280;46155;52.364;6.580;2023-12-14T06:17:54;101222.72;;;4.33;100.00
60307;BME280;46155;52.364;6.580;2023-12-14T06:20:19;101226.38;;;4.35;100.00
60307;BME280;46155;52.364;6.580;2023-12-14T06:22:44;101232.78;;;4.38;100.00
60307;BME280;46155;52.364;6.580;2023-12-14T06:25:10;101244.97;;;4.39;100.00
60307;BME280;46155;52.364;6.580;2023-12-14T06:27:35;101246.94;;;4.23;100.00
60307;BME280;46155;52.364;6.580;2023-12-14T06:30:00;101243.28;;;4.21;100.00
60307;BME280;46155;52.364;6.580;2023-12-14T06:32:26;101239.22;;;4.14;100.00
60307;BME280;46155;52.364;6.580;2023-12-14T06:34:51;101251.28;;;4.13;100.00
60307;BME280;46155;52.364;6.580;2023-12-14T06:37:16;101255.72;;;4.14;100.00
60307;BME280;46155;52.364;6.580;2023-12-14T06:39:41;101260.22;;;3.98;100.00
60307;BME280;46155;52.364;6.580;2023-12-14T06:42:07;101257.56;;;3.79;100.00
60307;BME280;46155;52.364;6.580;2023-12-14T06:44:32;101272.91;;;3.67;100.00
60307;BME280;46155;52.364;6.580;2023-12-14T06:46:58;101258.19;;;3.76;100.00
60307;BME280;46155;52.364;6.580;2023-12-14T06:49:23;101263.97;;;3.83;100.00
60307;BME280;46155;52.364;6.580;2023-12-14T06:51:49;101277.13;;;3.75;100.00
60307;BME280;46155;52.364;6.580;2023-12-14T06:54:14;101268.66;;;3.59;100.00
60307;BME280;46155;52.364;6.580;2023-12-14T06:56:39;101283.16;;;3.57;100.00
60307;BME280;46155;52.364;6.580;2023-12-14T06:59:04;101281.81;;;3.52;100.00
60307;BME280;46155;52.364;6.580;2023-12-14T07:01:30;101297.25;;;3.50;100.00
60307;BME280;46155;52.364;6.580;2023-12-14T07:03:55;101305.19;;;3.52;100.00
60307;BME280;46155;52.364;6.580;2023-12-14T07:06:20;101296.47;;;3.51;100.00
60307;BME280;46155;52.364;6.580;2023-12-14T07:08:46;101299.84;;;3.41;100.00
60307;BME280;46155;52.364;6.580;2023-12-14T07:11:12;101300.75;;;3.51;100.00
60307;BME280;46155;52.364;6.580;2023-12-14T07:13:38;101298.91;;;3.50;100.00
60307;BME280;46155;52.364;6.580;2023-12-14T07:16:05;101308.69;;;3.52;100.00
60307;BME280;46155;52.364;6.580;2023-12-14T07:18:31;101299.47;;;3.73;100.00
60307;BME280;46155;52.364;6.580;2023-12-14T07:20:56;101305.19;;;3.88;100.00
60307;BME280;46155;52.364;6.580;2023-12-14T07:23:21;101311.03;;;3.86;100.00
60307;BME280;46155;52.364;6.580;2023-12-14T07:25:47;101311.78;;;3.85;100.00
60307;BME280;46155;52.364;6.580;2023-12-14T07:28:12;101322.22;;;3.76;100.00
60307;BME280;46155;52.364;6.580;2023-12-14T07:30:37;101324.69;;;3.74;100.00
60307;BME280;46155;52.364;6.580;2023-12-14T07:33:02;101334.75;;;3.71;100.00
60307;BME280;46155;52.364;6.580;2023-12-14T07:35:28;101345.78;;;3.69;100.00
60307;BME280;46155;52.364;6.580;2023-12-14T07:37:53;101352.44;;;3.75;100.00
60307;BME280;46155;52.364;6.580;2023-12-14T07:40:18;101359.47;;;3.76;100.00
60307;BME280;46155;52.364;6.580;2023-12-14T07:42:44;101356.84;;;3.85;100.00
60307;BME280;46155;52.364;6.580;2023-12-14T07:45:09;101365.44;;;3.84;100.00
60307;BME280;46155;52.364;6.580;2023-12-14T07:47:35;101372.16;;;3.82;100.00
60307;BME280;46155;52.364;6.580;2023-12-14T07:50:01;101377.50;;;3.84;100.00
60307;BME280;46155;52.364;6.580;2023-12-14T07:52:26;101378.56;;;3.86;100.00
60307;BME280;46155;52.364;6.580;2023-12-14T07:54:51;101383.75;;;3.86;100.00
60307;BME280;46155;52.364;6.580;2023-12-14T07:57:16;101390.16;;;3.89;100.00
60307;BME280;46155;52.364;6.580;2023-12-14T07:59:42;101393.38;;;3.95;100.00
60307;BME280;46155;52.364;6.580;2023-12-14T08:02:07;101393.38;;;3.95;100.00
60307;BME280;46155;52.364;6.580;2023-12-14T08:04:33;101402.69;;;3.93;100.00
60307;BME280;46155;52.364;6.580;2023-12-14T08:06:58;101407.88;;;3.93;100.00
60307;BME280;46155;52.364;6.580;2023-12-14T08:09:23;101406.50;;;3.88;100.00
60307;BME280;46155;52.364;6.580;2023-12-14T08:11:49;101426.50;;;3.98;100.00
60307;BME280;46155;52.364;6.580;2023-12-14T08:14:15;101429.25;;;4.08;100.00
60307;BME280;46155;52.364;6.580;2023-12-14T08:16:40;101434.56;;;4.10;100.00
60307;BME280;46155;52.364;6.580;2023-12-14T08:19:05;101435.34;;;4.09;100.00
60307;BME280;46155;52.364;6.580;2023-12-14T08:21:31;101435.31;;;4.18;100.00
60307;BME280;46155;52.364;6.580;2023-12-14T08:23:56;101442.34;;;4.19;100.00
60307;BME280;46155;52.364;6.580;2023-12-14T08:26:21;101447.22;;;4.24;100.00
60307;BME280;46155;52.364;6.580;2023-12-14T08:28:46;101453.13;;;4.32;100.00
60307;BME280;46155;52.364;6.580;2023-12-14T08:31:12;101462.16;;;4.36;100.00
60307;BME280;46155;52.364;6.580;2023-12-14T08:33:37;101469.81;;;4.34;100.00
60307;BME280;46155;52.364;6.580;2023-12-14T08:36:03;101477.75;;;4.36;100.00
60307;BME280;46155;52.364;6.580;2023-12-14T08:38:30;101480.50;;;4.37;100.00
60307;BME280;46155;52.364;6.580;2023-12-14T08:40:55;101483.84;;;4.36;100.00
60307;BME280;46155;52.364;6.580;2023-12-14T08:43:20;101483.56;;;4.33;100.00
60307;BME280;46155;52.364;6.580;2023-12-14T08:45:46;101488.31;;;4.37;100.00
60307;BME280;46155;52.364;6.580;2023-12-14T08:48:12;101488.72;;;4.42;100.00
60307;BME280;46155;52.364;6.580;2023-12-14T08:50:37;101487.84;;;4.41;100.00
60307;BME280;46155;52.364;6.580;2023-12-14T08:53:03;101484.16;;;4.39;100.00
60307;BME280;46155;52.364;6.580;2023-12-14T08:55:30;101491.75;;;4.46;100.00
60307;BME280;46155;52.364;6.580;2023-12-14T08:57:56;101489.97;;;4.45;100.00
60307;BME280;46155;52.364;6.580;2023-12-14T09:00:22;101493.66;;;4.39;100.00
60307;BME280;46155;52.364;6.580;2023-12-14T09:02:48;101503.59;;;4.34;100.00
60307;BME280;46155;52.364;6.580;2023-12-14T09:05:14;101504.94;;;4.39;100.00
60307;BME280;46155;52.364;6.580;2023-12-14T09:07:41;101499.75;;;4.39;100.00
60307;BME280;46155;52.364;6.580;2023-12-14T09:10:06;101503.56;;;4.43;100.00
60307;BME280;46155;52.364;6.580;2023-12-14T09:12:35;101515.66;;;4.42;100.00
60307;BME280;46155;52.364;6.580;2023-12-14T09:15:01;101517.47;;;4.43;100.00
60307;BME280;46155;52.364;6.580;2023-12-14T09:17:26;101520.38;;;4.46;100.00
60307;BME280;46155;52.364;6.580;2023-12-14T09:19:58;101519.63;;;4.47;100.00
60307;BME280;46155;52.364;6.580;2023-12-14T09:22:23;101519.13;;;4.52;100.00
60307;BME280;46155;52.364;6.580;2023-12-14T09:24:48;101516.25;;;4.48;100.00
60307;BME280;46155;52.364;6.580;2023-12-14T09:27:14;101518.75;;;4.38;100.00
60307;BME280;46155;52.364;6.580;2023-12-14T09:29:40;101522.84;;;4.36;100.00
60307;BME280;46155;52.364;6.580;2023-12-14T09:32:07;101516.91;;;4.37;100.00
60307;BME280;46155;52.364;6.580;2023-12-14T09:34:33;101527.16;;;4.36;100.00
60307;BME280;46155;52.364;6.580;2023-12-14T09:36:58;101530.81;;;4.38;100.00
60307;BME280;46155;52.364;6.580;2023-12-14T09:39:23;101541.06;;;4.36;100.00
60307;BME280;46155;52.364;6.580;2023-12-14T09:41:50;101541.34;;;4.39;100.00
60307;BME280;46155;52.364;6.580;2023-12-14T09:44:16;101551.59;;;4.38;100.00
60307;BME280;46155;52.364;6.580;2023-12-14T09:46:42;101552.06;;;4.42;100.00
60307;BME280;46155;52.364;6.580;2023-12-14T09:49:14;101552.22;;;4.44;100.00
60307;BME280;46155;52.364;6.580;2023-12-14T09:51:40;101549.63;;;4.44;100.00
60307;BME280;46155;52.364;6.580;2023-12-14T09:54:06;101565.19;;;4.53;100.00
60307;BME280;46155;52.364;6.580;2023-12-14T09:56:31;101579.72;;;4.51;100.00
60307;BME280;46155;52.364;6.580;2023-12-14T09:58:57;101582.16;;;4.49;100.00
60307;BME280;46155;52.364;6.580;2023-12-14T10:01:26;101585.41;;;4.29;100.00
60307;BME280;46155;52.364;6.580;2023-12-14T10:04:08;101586.16;;;4.28;100.00
60307;BME280;46155;52.364;6.580;2023-12-14T10:06:33;101590.94;;;4.14;100.00
60307;BME280;46155;52.364;6.580;2023-12-14T10:08:58;101593.09;;;4.10;100.00
60307;BME280;46155;52.364;6.580;2023-12-14T10:11:24;101593.25;;;4.03;100.00
60307;BME280;46155;52.364;6.580;2023-12-14T10:13:49;101591.25;;;4.00;100.00
60307;BME280;46155;52.364;6.580;2023-12-14T10:16:30;101585.47;;;4.03;100.00
60307;BME280;46155;52.364;6.580;2023-12-14T10:18:57;101592.16;;;4.09;100.00
60307;BME280;46155;52.364;6.580;2023-12-14T10:21:23;101587.88;;;4.19;100.00
60307;BME280;46155;52.364;6.580;2023-12-14T10:23:49;101590.03;;;4.23;100.00
60307;BME280;46155;52.364;6.580;2023-12-14T10:26:15;101592.47;;;4.30;100.00
60307;BME280;46155;52.364;6.580;2023-12-14T10:28:40;101597.63;;;4.39;100.00
60307;BME280;46155;52.364;6.580;2023-12-14T10:31:06;101612.00;;;4.35;100.00
60307;BME280;46155;52.364;6.580;2023-12-14T10:33:32;101608.66;;;4.36;100.00
60307;BME280;46155;52.364;6.580;2023-12-14T10:35:57;101608.94;;;4.39;100.00
60307;BME280;46155;52.364;6.580;2023-12-14T10:38:24;101612.34;;;4.38;100.00
60307;BME280;46155;52.364;6.580;2023-12-14T10:40:50;101621.00;;;4.47;100.00
60307;BME280;46155;52.364;6.580;2023-12-14T10:43:18;101613.69;;;4.43;100.00
60307;BME280;46155;52.364;6.580;2023-12-14T10:45:46;101621.00;;;4.47;100.00
60307;BME280;46155;52.364;6.580;2023-12-14T10:48:13;101625.28;;;4.56;100.00
60307;BME280;46155;52.364;6.580;2023-12-14T10:50:42;101628.66;;;4.55;100.00
60307;BME280;46155;52.364;6.580;2023-12-14T10:53:07;101632.81;;;4.53;100.00
60307;BME280;46155;52.364;6.580;2023-12-14T10:55:38;101640.16;;;4.48;100.00
60307;BME280;46155;52.364;6.580;2023-12-14T10:58:05;101644.25;;;4.55;100.00
60307;BME280;46155;52.364;6.580;2023-12-14T11:00:31;101647.47;;;4.52;100.00
60307;BME280;46155;52.364;6.580;2023-12-14T11:02:59;101640.13;;;4.57;100.00
60307;BME280;46155;52.364;6.580;2023-12-14T11:05:28;101650.53;;;4.39;100.00
60307;BME280;46155;52.364;6.580;2023-12-14T11:08:03;101652.53;;;4.33;100.00
60307;BME280;46155;52.364;6.580;2023-12-14T11:10:37;101650.53;;;4.39;100.00
60307;BME280;46155;52.364;6.580;2023-12-14T11:13:06;101660.16;;;4.49;100.00
60307;BME280;46155;52.364;6.580;2023-12-14T11:15:35;101657.56;;;4.58;100.00
60307;BME280;46155;52.364;6.580;2023-12-14T11:23:09;101671.66;;;4.51;100.00
60307;BME280;46155;52.364;6.580;2023-12-14T11:25:35;101670.41;;;4.56;100.00
60307;BME280;46155;52.364;6.580;2023-12-14T11:28:03;101678.84;;;4.54;100.00
60307;BME280;46155;52.364;6.580;2023-12-14T11:30:30;101681.75;;;4.48;100.00
60307;BME280;46155;52.364;6.580;2023-12-14T11:32:55;101683.88;;;4.52;100.00
60307;BME280;46155;52.364;6.580;2023-12-14T11:35:20;101674.09;;;4.58;100.00
60307;BME280;46155;52.364;6.580;2023-12-14T11:37:46;101676.09;;;4.61;100.00
60307;BME280;46155;52.364;6.580;2023-12-14T11:40:11;101685.84;;;4.63;100.00
60307;BME280;46155;52.364;6.580;2023-12-14T11:42:38;101682.34;;;4.63;100.00
60307;BME280;46155;52.364;6.580;2023-12-14T11:45:04;101680.19;;;4.59;100.00
60307;BME280;46155;52.364;6.580;2023-12-14T11:47:29;101682.03;;;4.60;100.00
60307;BME280;46155;52.364;6.580;2023-12-14T11:49:54;101683.88;;;4.61;100.00
60307;BME280;46155;52.364;6.580;2023-12-14T11:52:21;101680.06;;;4.48;100.00
60307;BME280;46155;52.364;6.580;2023-12-14T11:54:47;101688.03;;;4.41;100.00
60307;BME280;46155;52.364;6.580;2023-12-14T11:57:12;101685.56;;;4.43;100.00
60307;BME280;46155;52.364;6.580;2023-12-14T11:59:37;101690.31;;;4.38;100.00
60307;BME280;46155;52.364;6.580;2023-12-14T12:02:03;101701.19;;;4.34;100.00
60307;BME280;46155;52.364;6.580;2023-12-14T12:04:28;101692.47;;;4.42;100.00
60307;BME280;46155;52.364;6.580;2023-12-14T12:07:04;101699.19;;;4.40;100.00
60307;BME280;46155;52.364;6.580;2023-12-14T12:09:51;101687.88;;;4.40;100.00
60307;BME280;46155;52.364;6.580;2023-12-14T12:12:17;101685.72;;;4.36;100.00
60307;BME280;46155;52.364;6.580;2023-12-14T12:14:42;101696.88;;;4.43;100.00
60307;BME280;46155;52.364;6.580;2023-12-14T12:17:08;101700.56;;;4.45;100.00
60307;BME280;46155;52.364;6.580;2023-12-14T12:19:36;101693.38;;;4.52;100.00
60307;BME280;46155;52.364;6.580;2023-12-14T12:22:02;101702.56;;;4.57;100.00
60307;BME280;46155;52.364;6.580;2023-12-14T12:24:27;101707.59;;;4.64;100.00
60307;BME280;46155;52.364;6.580;2023-12-14T12:26:54;101703.44;;;4.66;100.00
60307;BME280;46155;52.364;6.580;2023-12-14T12:29:19;101714.47;;;4.72;100.00
60307;BME280;46155;52.364;6.580;2023-12-14T12:31:45;101711.09;;;4.73;100.00
60307;BME280;46155;52.364;6.580;2023-12-14T12:34:11;101719.97;;;4.75;100.00
60307;BME280;46155;52.364;6.580;2023-12-14T12:36:36;101719.06;;;4.83;100.00
60307;BME280;46155;52.364;6.580;2023-12-14T12:39:02;101721.81;;;4.76;100.00
60307;BME280;46155;52.364;6.580;2023-12-14T12:41:28;101725.78;;;4.73;100.00
60307;BME280;46155;52.364;6.580;2023-12-14T12:43:53;101726.09;;;4.76;100.00
60307;BME280;46155;52.364;6.580;2023-12-14T12:46:19;101720.13;;;4.77;100.00
60307;BME280;46155;52.364;6.580;2023-12-14T12:48:44;101724.44;;;4.76;100.00
60307;BME280;46155;52.364;6.580;2023-12-14T12:51:12;101724.56;;;4.69;100.00
60307;BME280;46155;52.364;6.580;2023-12-14T12:53:37;101725.50;;;4.61;100.00
60307;BME280;46155;52.364;6.580;2023-12-14T12:56:03;101735.13;;;4.71;100.00
60307;BME280;46155;52.364;6.580;2023-12-14T12:58:28;101734.50;;;4.73;100.00
60307;BME280;46155;52.364;6.580;2023-12-14T13:00:54;101736.63;;;4.77;100.00
60307;BME280;46155;52.364;6.580;2023-12-14T13:03:19;101735.88;;;4.78;100.00
60307;BME280;46155;52.364;6.580;2023-12-14T13:05:44;101731.72;;;4.80;100.00
60307;BME280;46155;52.364;6.580;2023-12-14T13:08:10;101736.63;;;4.86;100.00
60307;BME280;46155;52.364;6.580;2023-12-14T13:10:35;101748.41;;;4.91;100.00
60307;BME280;46155;52.364;6.580;2023-12-14T13:13:02;101753.75;;;4.93;100.00
60307;BME280;46155;52.364;6.580;2023-12-14T13:15:28;101745.19;;;4.94;100.00
60307;BME280;46155;52.364;6.580;2023-12-14T13:17:55;101742.44;;;5.01;100.00
60307;BME280;46155;52.364;6.580;2023-12-14T13:20:21;101745.94;;;5.02;100.00
60307;BME280;46155;52.364;6.580;2023-12-14T13:22:46;101754.22;;;5.06;100.00
60307;BME280;46155;52.364;6.580;2023-12-14T13:25:11;101754.69;;;5.02;100.00
60307;BME280;46155;52.364;6.580;2023-12-14T13:27:37;101756.03;;;5.07;100.00
60307;BME280;46155;52.364;6.580;2023-12-14T13:30:03;101765.97;;;5.11;100.00
60307;BME280;46155;52.364;6.580;2023-12-14T13:32:29;101766.78;;;5.10;100.00
60307;BME280;46155;52.364;6.580;2023-12-14T13:34:54;101761.84;;;5.13;100.00
60307;BME280;46155;52.364;6.580;2023-12-14T13:37:20;101767.69;;;5.11;100.00
60307;BME280;46155;52.364;6.580;2023-12-14T13:39:45;101761.56;;;5.10;100.00
60307;BME280;46155;52.364;6.580;2023-12-14T13:42:10;101764.00;;;5.17;100.00
60307;BME280;46155;52.364;6.580;2023-12-14T13:44:35;101772.72;;;5.18;100.00
60307;BME280;46155;52.364;6.580;2023-12-14T13:47:02;101775.31;;;5.18;100.00
60307;BME280;46155;52.364;6.580;2023-12-14T13:49:28;101776.69;;;5.14;100.00
60307;BME280;46155;52.364;6.580;2023-12-14T13:51:53;101782.53;;;5.21;100.00
60307;BME280;46155;52.364;6.580;2023-12-14T13:54:19;101786.97;;;5.22;100.00
60307;BME280;46155;52.364;6.580;2023-12-14T13:56:44;101786.97;;;5.22;100.00
60307;BME280;46155;52.364;6.580;2023-12-14T13:59:09;101793.69;;;5.20;100.00
60307;BME280;46155;52.364;6.580;2023-12-14T14:01:35;101790.94;;;5.18;100.00
60307;BME280;46155;52.364;6.580;2023-12-14T14:04:01;101796.00;;;5.16;100.00
60307;BME280;46155;52.364;6.580;2023-12-14T14:06:26;101795.09;;;5.16;100.00
60307;BME280;46155;52.364;6.580;2023-12-14T14:08:52;101796.16;;;5.18;100.00
60307;BME280;46155;52.364;6.580;2023-12-14T14:11:17;101793.41;;;5.16;100.00
60307;BME280;46155;52.364;6.580;2023-12-14T14:13:42;101806.13;;;5.13;100.00
60307;BME280;46155;52.364;6.580;2023-12-14T14:16:08;101810.22;;;5.11;100.00
60307;BME280;46155;52.364;6.580;2023-12-14T14:18:34;101812.69;;;5.10;100.00
60307;BME280;46155;52.364;6.580;2023-12-14T14:20:59;101819.44;;;5.08;100.00
60307;BME280;46155;52.364;6.580;2023-12-14T14:23:26;101817.00;;;5.09;100.00
60307;BME280;46155;52.364;6.580;2023-12-14T14:25:52;101819.75;;;5.02;100.00
60307;BME280;46155;52.364;6.580;2023-12-14T14:28:21;101822.19;;;5.00;100.00
60307;BME280;46155;52.364;6.580;2023-12-14T14:30:47;101829.88;;;4.99;100.00
60307;BME280;46155;52.364;6.580;2023-12-14T14:33:14;101832.47;;;4.99;100.00
60307;BME280;46155;52.364;6.580;2023-12-14T14:35:43;101835.81;;;4.98;100.00
60307;BME280;46155;52.364;6.580;2023-12-14T14:38:09;101840.56;;;5.02;100.00
60307;BME280;46155;52.364;6.580;2023-12-14T14:40:34;101841.78;;;4.97;100.00
60307;BME280;46155;52.364;6.580;2023-12-14T14:42:59;101848.19;;;4.92;100.00
60307;BME280;46155;52.364;6.580;2023-12-14T14:45:25;101854.66;;;4.87;100.00
60307;BME280;46155;52.364;6.580;2023-12-14T14:47:50;101854.00;;;4.80;100.00
60307;BME280;46155;52.364;6.580;2023-12-14T14:50:15;101853.72;;;4.77;100.00
60307;BME280;46155;52.364;6.580;2023-12-14T14:52:40;101860.47;;;4.75;100.00
60307;BME280;46155;52.364;6.580;2023-12-14T14:55:06;101863.81;;;4.74;100.00
60307;BME280;46155;52.364;6.580;2023-12-14T14:57:31;101872.72;;;4.76;100.00
60307;BME280;46155;52.364;6.580;2023-12-14T14:59:58;101869.16;;;4.85;100.00
60307;BME280;46155;52.364;6.580;2023-12-14T15:02:24;101874.53;;;4.86;100.00
60307;BME280;46155;52.364;6.580;2023-12-14T15:04:50;101880.38;;;4.83;100.00
60307;BME280;46155;52.364;6.580;2023-12-14T15:07:15;101880.97;;;4.81;100.00
60307;BME280;46155;52.364;6.580;2023-12-14T15:09:40;101889.06;;;4.75;100.00
60307;BME280;46155;52.364;6.580;2023-12-14T15:12:06;101893.63;;;4.69;100.00
60307;BME280;46155;52.364;6.580;2023-12-14T15:14:31;101904.53;;;4.65;100.00
60307;BME280;46155;52.364;6.580;2023-12-14T15:16:57;101902.66;;;4.64;100.00
60307;BME280;46155;52.364;6.580;2023-12-14T15:19:22;101910.91;;;4.60;100.00
60307;BME280;46155;52.364;6.580;2023-12-14T15:21:47;101910.63;;;4.57;100.00
60307;BME280;46155;52.364;6.580;2023-12-14T15:24:13;101920.38;;;4.51;100.00
60307;BME280;46155;52.364;6.580;2023-12-14T15:26:38;101928.59;;;4.46;100.00
60307;BME280;46155;52.364;6.580;2023-12-14T15:29:06;101926.13;;;4.39;100.00
60307;BME280;46155;52.364;6.580;2023-12-14T15:31:32;101932.16;;;4.47;100.00
60307;BME280;46155;52.364;6.580;2023-12-14T15:33:57;101930.47;;;4.47;100.00
60307;BME280;46155;52.364;6.580;2023-12-14T15:36:23;101946.50;;;4.43;100.00
60307;BME280;46155;52.364;6.580;2023-12-14T15:38:48;101943.91;;;4.43;100.00
60307;BME280;46155;52.364;6.580;2023-12-14T15:41:14;101946.63;;;4.36;100.00
60307;BME280;46155;52.364;6.580;2023-12-14T15:43:40;101954.09;;;4.24;100.00
60307;BME280;46155;52.364;6.580;2023-12-14T15:46:06;101963.66;;;4.17;100.00
60307;BME280;46155;52.364;6.580;2023-12-14T15:48:31;101966.69;;;4.12;100.00
60307;BME280;46155;52.364;6.580;2023-12-14T15:50:56;101961.50;;;4.12;100.00
60307;BME280;46155;52.364;6.580;2023-12-14T15:53:22;101972.34;;;4.08;100.00
60307;BME280;46155;52.364;6.580;2023-12-14T15:55:47;101965.16;;;4.06;100.00
60307;BME280;46155;52.364;6.580;2023-12-14T15:58:13;101969.41;;;4.05;100.00
60307;BME280;46155;52.364;6.580;2023-12-14T16:00:38;101977.47;;;4.00;100.00
60307;BME280;46155;52.364;6.580;2023-12-14T16:03:04;101972.13;;;3.98;100.00
60307;BME280;46155;52.364;6.580;2023-12-14T16:05:30;101971.38;;;3.99;100.00
60307;BME280;46155;52.364;6.580;2023-12-14T16:07:55;101966.28;;;3.92;100.00
60307;BME280;46155;52.364;6.580;2023-12-14T16:10:21;101972.50;;;3.85;100.00
60307;BME280;46155;52.364;6.580;2023-12-14T16:12:47;101976.94;;;3.86;100.00
60307;BME280;46155;52.364;6.580;2023-12-14T16:15:12;101995.03;;;3.93;100.00
60307;BME280;46155;52.364;6.580;2023-12-14T16:17:37;101992.59;;;3.95;100.00
60307;BME280;46155;52.364;6.580;2023-12-14T16:20:03;102000.09;;;4.01;100.00
60307;BME280;46155;52.364;6.580;2023-12-14T16:22:30;101991.72;;;4.03;100.00
60307;BME280;46155;52.364;6.580;2023-12-14T16:24:55;101998.00;;;4.05;100.00
60307;BME280;46155;52.364;6.580;2023-12-14T16:27:20;101998.34;;;4.08;100.00
60307;BME280;46155;52.364;6.580;2023-12-14T16:29:46;102004.59;;;4.10;100.00
60307;BME280;46155;52.364;6.580;2023-12-14T16:32:12;102004.94;;;4.13;100.00
60307;BME280;46155;52.364;6.580;2023-12-14T16:34:37;102002.16;;;4.12;100.00
60307;BME280;46155;52.364;6.580;2023-12-14T16:37:02;102010.56;;;4.09;100.00
60307;BME280;46155;52.364;6.580;2023-12-14T16:39:28;102019.13;;;4.08;100.00
60307;BME280;46155;52.364;6.580;2023-12-14T16:41:55;102009.00;;;4.03;100.00
60307;BME280;46155;52.364;6.580;2023-12-14T16:44:20;102011.59;;;4.03;100.00
60307;BME280;46155;52.364;6.580;2023-12-14T16:46:45;102006.22;;;4.01;100.00
60307;BME280;46155;52.364;6.580;2023-12-14T16:49:11;102011.25;;;4.00;100.00